createdAt,value
2022-09-07T00:00:24.802Z,19.99
2022-09-07T00:03:32.536Z,20.07
2022-09-07T00:06:43.081Z,20.10
2022-09-07T00:09:49.210Z,20.12
2022-09-07T00:12:57.665Z,20.17
2022-09-07T00:16:11.957Z,20.21
2022-09-07T00:19:24.004Z,20.26
2022-09-07T00:22:29.167Z,20.30
2022-09-07T00:25:38.194Z,20.34
2022-09-07T00:28:47.599Z,20.42
2022-09-07T00:31:59.236Z,20.44
2022-09-07T00:35:09.349Z,20.50
2022-09-07T00:38:13.869Z,20.53
2022-09-07T00:41:26.712Z,20.55
2022-09-07T00:45:03.149Z,20.56
2022-09-07T00:48:23.413Z,20.58
2022-09-07T00:51:34.993Z,20.62
2022-09-07T00:54:46.827Z,20.54
2022-09-07T00:58:00.704Z,20.43
2022-09-07T01:01:18.546Z,20.40
2022-09-07T01:04:34.460Z,20.48
2022-09-07T01:07:45.523Z,20.52
2022-09-07T01:11:04.523Z,20.60
2022-09-07T01:14:31.031Z,20.59
2022-09-07T01:17:51.469Z,20.62
2022-09-07T01:21:25.439Z,20.75
2022-09-07T01:24:46.180Z,20.86
2022-09-07T01:28:15.281Z,20.91
2022-09-07T01:31:32.652Z,21.02
2022-09-07T01:34:41.236Z,21.10
2022-09-07T01:37:57.033Z,21.14
2022-09-07T01:41:14.714Z,21.17
2022-09-07T01:44:34.987Z,21.21
2022-09-07T01:47:49.529Z,21.19
2022-09-07T01:51:03.143Z,21.14
2022-09-07T01:54:15.760Z,21.12
2022-09-07T01:57:26.107Z,21.08
2022-09-07T02:00:39.045Z,21.09
2022-09-07T02:03:48.725Z,21.05
2022-09-07T02:07:03.770Z,21.05
2022-09-07T02:10:14.611Z,21.00
2022-09-07T02:13:26.151Z,20.95
2022-09-07T02:16:42.450Z,20.92
2022-09-07T02:19:58.121Z,20.90
2022-09-07T02:23:09.943Z,20.85
2022-09-07T02:26:28.760Z,20.79
2022-09-07T02:29:41.195Z,20.70
2022-09-07T02:32:54.215Z,20.68
2022-09-07T02:36:02.431Z,20.68
2022-09-07T02:39:12.259Z,20.66
2022-09-07T02:42:20.611Z,20.81
2022-09-07T02:45:32.807Z,20.81
2022-09-07T02:48:54.531Z,20.81
2022-09-07T02:52:19.095Z,20.82
2022-09-07T02:55:40.175Z,20.89
2022-09-07T02:59:02.607Z,20.91
2022-09-07T03:02:18.425Z,20.86
2022-09-07T03:05:33.257Z,20.88
2022-09-07T03:08:46.594Z,20.87
2022-09-07T03:11:55.713Z,20.86
2022-09-07T03:15:05.211Z,20.79
2022-09-07T03:18:12.797Z,20.79
2022-09-07T03:21:22.951Z,20.68
2022-09-07T03:24:29.704Z,20.60
2022-09-07T03:27:36.192Z,20.52
2022-09-07T03:30:47.535Z,20.45
2022-09-07T03:34:03.170Z,20.38
2022-09-07T03:37:16.013Z,20.30
2022-09-07T03:40:23.363Z,20.24
2022-09-07T03:43:32.863Z,20.17
2022-09-07T03:46:45.209Z,20.07
2022-09-07T03:49:53.470Z,19.97
2022-09-07T03:53:03.880Z,19.83
2022-09-07T03:56:16.640Z,19.71
2022-09-07T03:59:25.403Z,19.58
2022-09-07T04:02:34.359Z,19.53
2022-09-07T04:05:41.589Z,19.42
2022-09-07T04:08:50.720Z,19.41
2022-09-07T04:12:01.912Z,19.36
2022-09-07T04:15:08.627Z,19.26
2022-09-07T04:18:20.211Z,19.22
2022-09-07T04:21:34.526Z,19.16
2022-09-07T04:24:43.600Z,19.15
2022-09-07T04:27:53.436Z,19.05
2022-09-07T04:31:05.541Z,19.01
2022-09-07T04:34:12.583Z,18.99
2022-09-07T04:37:19.991Z,18.94
2022-09-07T04:40:31.573Z,18.90
2022-09-07T04:43:42.330Z,18.83
2022-09-07T04:46:52.600Z,18.80
2022-09-07T04:49:57.619Z,18.77
2022-09-07T04:53:03.376Z,18.72
2022-09-07T04:56:15.021Z,18.69
2022-09-07T04:59:33.346Z,18.66
2022-09-07T05:02:52.892Z,18.64
2022-09-07T05:06:30.376Z,18.61
2022-09-07T05:09:50.100Z,18.58
2022-09-07T05:13:08.428Z,18.57
2022-09-07T05:16:16.398Z,18.61
2022-09-07T05:19:24.103Z,18.67
2022-09-07T05:22:31.381Z,18.75
2022-09-07T05:25:48.006Z,18.86
2022-09-07T05:32:30.712Z,18.91
2022-09-07T05:35:39.203Z,18.97
2022-09-07T05:38:51.296Z,19.03
2022-09-07T05:42:12.442Z,19.10
2022-09-07T05:45:22.574Z,19.22
2022-09-07T05:48:33.007Z,19.38
2022-09-07T05:51:47.493Z,19.57
2022-09-07T05:55:30.775Z,19.80
2022-09-07T05:58:43.593Z,20.00
2022-09-07T06:02:05.679Z,20.17
2022-09-07T06:05:15.006Z,20.35
2022-09-07T06:08:23.155Z,20.50
2022-09-07T06:11:36.452Z,20.59
2022-09-07T06:14:51.458Z,20.67
2022-09-07T06:18:21.034Z,20.71
2022-09-07T06:21:31.629Z,20.74
2022-09-07T06:24:41.686Z,20.76
2022-09-07T06:27:54.399Z,20.78
2022-09-07T06:39:13.236Z,21.44
2022-09-07T06:42:59.565Z,21.76
2022-09-07T06:58:11.338Z,22.40
2022-09-07T07:05:51.031Z,22.26
2022-09-07T07:09:31.338Z,22.21
2022-09-07T07:13:06.378Z,22.51
2022-09-07T07:16:28.549Z,22.85
2022-09-07T07:19:38.525Z,23.08
2022-09-07T07:22:47.351Z,23.23
2022-09-07T07:25:54.841Z,23.40
2022-09-07T07:29:03.967Z,23.55
2022-09-07T07:32:12.371Z,23.67
2022-09-07T07:35:19.985Z,23.76
2022-09-07T07:42:05.858Z,23.83
2022-09-07T07:48:44.212Z,23.94
2022-09-07T07:55:44.721Z,24.02
2022-09-07T07:58:56.286Z,24.09
2022-09-07T08:02:05.899Z,24.25
2022-09-07T08:05:14.524Z,24.45
2022-09-07T08:08:31.547Z,24.45
2022-09-07T08:11:47.853Z,24.56
2022-09-07T08:14:58.310Z,24.77
2022-09-07T08:25:37.949Z,25.64
2022-09-07T08:28:58.995Z,25.88
2022-09-07T08:32:16.055Z,26.16
2022-09-07T08:36:12.948Z,26.39
2022-09-07T08:43:31.349Z,26.74
2022-09-07T08:50:42.521Z,27.01
2022-09-07T08:54:05.470Z,27.16
2022-09-07T08:57:27.999Z,27.29
2022-09-07T09:04:34.676Z,27.67
2022-09-07T09:08:16.741Z,27.83
2022-09-07T09:11:33.821Z,27.85
2022-09-07T09:14:57.890Z,27.91
2022-09-07T09:18:14.589Z,27.99
2022-09-07T09:21:26.373Z,28.10
2022-09-07T09:24:38.318Z,28.10
2022-09-07T09:27:50.007Z,28.14
2022-09-07T09:31:04.131Z,28.20
2022-09-07T09:34:25.467Z,28.27
2022-09-07T09:37:49.832Z,28.44
2022-09-07T09:41:01.130Z,28.60
2022-09-07T09:44:10.142Z,28.72
2022-09-07T09:47:30.358Z,28.86
2022-09-07T10:05:51.090Z,28.90
2022-09-07T10:09:02.592Z,28.42
2022-09-07T10:12:23.588Z,28.30
2022-09-07T10:15:41.420Z,28.26
2022-09-07T10:19:05.258Z,28.18
2022-09-07T10:22:42.780Z,27.73
2022-09-07T10:25:50.511Z,27.59
2022-09-07T10:29:17.413Z,27.98
2022-09-07T10:32:49.569Z,28.35
2022-09-07T10:36:14.328Z,28.74
2022-09-07T10:39:34.743Z,28.92
2022-09-07T10:47:02.555Z,28.76
2022-09-07T10:50:27.669Z,28.34
2022-09-07T10:53:43.096Z,27.77
2022-09-07T10:57:05.368Z,27.32
2022-09-07T11:00:19.215Z,27.17
2022-09-07T11:03:49.209Z,27.62
2022-09-07T11:07:06.047Z,27.97
2022-09-07T11:10:24.571Z,28.18
2022-09-07T11:14:09.037Z,28.23
2022-09-07T11:17:28.662Z,28.57
2022-09-07T11:20:51.501Z,28.69
2022-09-07T11:24:12.672Z,28.84
2022-09-07T11:27:31.066Z,28.99
2022-09-07T11:30:50.911Z,29.18
2022-09-07T11:37:45.005Z,29.49
2022-09-07T11:41:12.321Z,29.77
2022-09-07T11:44:39.983Z,29.95
2022-09-07T11:47:58.486Z,29.98
2022-09-07T11:51:17.222Z,29.88
2022-09-07T11:54:36.167Z,29.82
2022-09-07T11:58:08.013Z,29.44
2022-09-07T12:01:30.788Z,29.09
2022-09-07T12:04:57.507Z,29.28
2022-09-07T12:08:22.111Z,29.59
2022-09-07T12:12:07.213Z,29.91
2022-09-07T12:15:27.984Z,30.18
2022-09-07T12:19:00.927Z,30.38
2022-09-07T12:22:22.783Z,30.42
2022-09-07T12:25:32.143Z,30.31
2022-09-07T12:29:26.583Z,30.07
2022-09-07T12:33:24.781Z,30.14
2022-09-07T12:37:12.167Z,30.22
2022-09-07T12:44:29.332Z,30.32
2022-09-07T12:47:34.645Z,30.27
2022-09-07T12:51:02.233Z,30.35
2022-09-07T12:54:19.480Z,30.61
2022-09-07T12:57:35.273Z,30.63
2022-09-07T13:00:57.989Z,30.64
2022-09-07T13:08:57.674Z,31.07
2022-09-07T13:12:57.551Z,31.27
2022-09-07T13:25:14.854Z,31.24
2022-09-07T13:29:24.093Z,31.27
2022-09-07T13:50:52.779Z,30.79
2022-09-07T13:54:35.244Z,30.49
2022-09-07T14:02:32.240Z,30.11
2022-09-07T14:10:06.120Z,29.39
2022-09-07T14:23:08.782Z,29.02
2022-09-07T14:30:35.104Z,29.61
2022-09-07T14:34:10.465Z,30.00
2022-09-07T14:37:46.922Z,29.84
2022-09-07T14:49:00.121Z,28.70
2022-09-07T14:56:50.171Z,28.30
2022-09-07T15:04:55.132Z,28.29
2022-09-07T15:12:17.604Z,28.42
2022-09-07T15:16:00.791Z,28.25
2022-09-07T15:19:45.257Z,28.09
2022-09-07T15:23:20.793Z,27.99
2022-09-07T15:27:04.949Z,28.03
2022-09-07T15:34:11.792Z,27.72
2022-09-07T15:49:12.507Z,27.13
2022-09-07T15:52:19.138Z,27.05
2022-09-07T15:55:30.374Z,27.03
2022-09-07T15:58:45.342Z,27.01
2022-09-07T16:01:58.244Z,26.97
2022-09-07T16:05:08.243Z,26.98
2022-09-07T16:08:25.128Z,27.01
2022-09-07T16:11:31.335Z,26.97
2022-09-07T16:14:43.898Z,26.86
2022-09-07T16:17:53.869Z,26.78
2022-09-07T16:21:05.742Z,26.69
2022-09-07T16:24:13.217Z,26.62
2022-09-07T16:27:19.063Z,26.50
2022-09-07T16:30:25.882Z,26.45
2022-09-07T16:33:37.354Z,26.40
2022-09-07T16:36:45.171Z,26.31
2022-09-07T16:39:53.040Z,26.25
2022-09-07T16:43:18.258Z,26.22
2022-09-07T16:46:29.636Z,26.20
2022-09-07T16:49:39.461Z,26.19
2022-09-07T16:53:10.735Z,26.17
2022-09-07T17:00:13.051Z,26.06
2022-09-07T17:03:43.234Z,25.99
2022-09-07T17:07:13.735Z,25.92
2022-09-07T17:10:24.521Z,25.86
2022-09-07T17:13:42.451Z,25.76
2022-09-07T17:17:07.669Z,25.67
2022-09-07T17:20:34.021Z,25.62
2022-09-07T17:23:55.122Z,25.51
2022-09-07T17:27:06.176Z,25.41
2022-09-07T17:30:14.247Z,25.30
2022-09-07T17:33:21.768Z,25.17
2022-09-07T17:36:34.491Z,25.00
2022-09-07T17:39:50.859Z,24.88
2022-09-07T17:46:24.516Z,24.77
2022-09-07T17:49:32.252Z,24.78
2022-09-07T17:52:41.163Z,24.85
2022-09-07T17:55:57.077Z,24.88
2022-09-07T18:02:32.427Z,25.02
2022-09-07T18:05:42.714Z,25.00
2022-09-07T18:08:52.367Z,24.92
2022-09-07T18:12:01.181Z,24.87
2022-09-07T18:15:10.472Z,24.74
2022-09-07T18:18:17.095Z,24.41
2022-09-07T18:21:26.741Z,24.02
2022-09-07T18:24:39.148Z,23.74
2022-09-07T18:29:03.333Z,23.48
2022-09-07T18:31:18.754Z,23.23
2022-09-07T18:34:25.778Z,22.93
2022-09-07T18:37:36.351Z,22.89
2022-09-07T18:40:47.714Z,22.74
2022-09-07T18:45:26.656Z,22.65
2022-09-07T18:47:37.674Z,22.63
2022-09-07T18:50:57.589Z,22.66
2022-09-07T18:54:07.391Z,22.66
2022-09-07T18:57:15.419Z,22.64
2022-09-07T19:00:27.719Z,22.68
2022-09-07T19:03:40.651Z,22.69
2022-09-07T19:06:50.291Z,22.69
2022-09-07T19:10:06.937Z,22.58
2022-09-07T19:13:17.509Z,22.50
2022-09-07T19:19:58.696Z,22.35
2022-09-07T19:23:12.621Z,22.27
2022-09-07T19:26:22.371Z,22.18
2022-09-07T19:29:31.203Z,22.04
2022-09-07T19:32:49.531Z,21.96
2022-09-07T19:36:02.705Z,21.93
2022-09-07T19:39:22.267Z,21.98
2022-09-07T19:42:28.424Z,22.01
2022-09-07T19:45:35.796Z,21.98
2022-09-07T19:48:46.618Z,21.87
2022-09-07T19:51:59.202Z,21.80
2022-09-07T19:55:04.384Z,21.76
2022-09-07T19:58:10.163Z,21.71
2022-09-07T20:01:19.443Z,21.67
2022-09-07T20:04:29.716Z,21.63
2022-09-07T20:07:44.257Z,21.61
2022-09-07T20:10:57.085Z,21.58
2022-09-07T20:14:24.624Z,21.48
2022-09-07T20:17:39.008Z,21.44
2022-09-07T20:20:58.157Z,21.37
2022-09-07T20:27:36.671Z,21.26
2022-09-07T20:30:45.464Z,21.19
2022-09-07T20:33:54.474Z,21.14
2022-09-07T20:37:06.439Z,21.07
2022-09-07T20:40:17.354Z,21.04
2022-09-07T20:43:26.807Z,21.03
2022-09-07T20:46:33.825Z,21.00
2022-09-07T20:49:47.929Z,20.94
2022-09-07T20:52:56.401Z,20.92
2022-09-07T20:56:03.536Z,20.88
2022-09-07T20:59:08.456Z,20.86
2022-09-07T21:02:13.592Z,20.80
2022-09-07T21:05:17.977Z,20.79
2022-09-07T21:08:24.338Z,20.74
2022-09-07T21:11:32.264Z,20.67
2022-09-07T21:14:36.667Z,20.66
2022-09-07T21:17:45.563Z,20.67
2022-09-07T21:21:18.872Z,20.68
2022-09-07T21:24:25.516Z,20.65
2022-09-07T21:27:34.068Z,20.64
2022-09-07T21:30:41.967Z,20.66
2022-09-07T21:33:48.725Z,20.67
2022-09-07T21:36:54.608Z,20.63
2022-09-07T21:40:04.629Z,20.63
2022-09-07T21:43:09.898Z,20.65
2022-09-07T21:46:16.833Z,20.67
2022-09-07T21:49:32.469Z,20.70
2022-09-07T21:52:48.469Z,20.74
2022-09-07T21:56:11.317Z,20.71
2022-09-07T21:59:23.474Z,20.75
2022-09-07T22:02:33.382Z,20.75
2022-09-07T22:05:40.526Z,20.69
2022-09-07T22:09:06.394Z,20.60
2022-09-07T22:12:28.605Z,20.60
2022-09-07T22:15:38.141Z,20.65
2022-09-07T22:18:46.240Z,20.65
2022-09-07T22:21:50.647Z,20.66
2022-09-07T22:24:55.030Z,20.65
2022-09-07T22:28:01.159Z,20.66
2022-09-07T22:31:14.440Z,20.66
2022-09-07T22:34:19.028Z,20.63
2022-09-07T22:37:25.431Z,20.63
2022-09-07T22:40:31.165Z,20.62
2022-09-07T22:43:37.777Z,20.60
2022-09-07T22:46:45.503Z,20.60
2022-09-07T22:49:51.389Z,20.57
2022-09-07T22:52:57.505Z,20.55
2022-09-07T22:56:07.600Z,20.54
2022-09-07T22:59:14.741Z,20.54
2022-09-07T23:02:19.047Z,20.53
2022-09-07T23:05:26.074Z,20.53
2022-09-07T23:08:34.978Z,20.58
2022-09-07T23:11:53.566Z,20.57
2022-09-07T23:15:00.529Z,20.58
2022-09-07T23:18:08.304Z,20.55
2022-09-07T23:21:16.407Z,20.55
2022-09-07T23:24:23.210Z,20.53
2022-09-07T23:27:35.174Z,20.54
2022-09-07T23:30:45.728Z,20.52
2022-09-07T23:33:55.939Z,20.49
2022-09-07T23:37:13.821Z,20.48
2022-09-07T23:40:22.148Z,20.45
2022-09-07T23:43:27.367Z,20.42
2022-09-07T23:46:33.911Z,20.46
2022-09-07T23:49:36.617Z,20.46
2022-09-07T23:52:39.273Z,20.45
2022-09-07T23:55:42.616Z,20.46
2022-09-07T23:58:45.299Z,20.43
